BOE7478 EGLL-EDDL
Flight info
| Callsign | BOE7478 |
|---|---|
| Flight time | N/A |
| Altitude | 33000 |
| Route | BPK Q295 BRAIN M197 REDFA DCT TACHA DCT PAM P62 PISAP PISAP1A |
| Aircraft | B748/H-SDE3FGHIM1M2RWXY/LB1 |
Departure
| Time | 2026-05-07 14:34 |
|---|---|
| Airport | London Heathrow Airport (EGLL) |
Arrival
| Time | N/A |
|---|---|
| Airport | Düsseldorf Airport (EDDL) |
| Time | Latitude | Longitude | Altitude | Speed | Heading |
|---|---|---|---|---|---|
| 2026-05-07 13:56 | 51.46852 | -0.46344 | 91 ft | 0 kts | 55° |
| 2026-05-07 14:14 | 51.46849 | -0.46349 | 91 ft | 3 kts | 55° |
| 2026-05-07 14:15 | 51.46839 | -0.46374 | 93 ft | 3 kts | 55° |
| 2026-05-07 14:15 | 51.46828 | -0.46398 | 92 ft | 3 kts | 55° |
| 2026-05-07 14:15 | 51.46817 | -0.46423 | 92 ft | 3 kts | 49° |
| 2026-05-07 14:15 | 51.46805 | -0.46452 | 93 ft | 3 kts | 74° |
| 2026-05-07 14:16 | 51.46801 | -0.46483 | 93 ft | 0 kts | 97° |
| 2026-05-07 14:20 | 51.46801 | -0.46481 | 93 ft | 1 kts | 97° |
| 2026-05-07 14:20 | 51.46801 | -0.46479 | 91 ft | 0 kts | 100° |
| 2026-05-07 14:20 | 51.46799 | -0.46472 | 91 ft | 2 kts | 107° |
| 2026-05-07 14:20 | 51.46793 | -0.46460 | 90 ft | 2 kts | 124° |
| 2026-05-07 14:21 | 51.46793 | -0.46459 | 90 ft | 0 kts | 124° |
| 2026-05-07 14:25 | 51.46790 | -0.46454 | 96 ft | 0 kts | 129° |
| 2026-05-07 14:25 | 51.46787 | -0.46449 | 95 ft | 2 kts | 134° |
| 2026-05-07 14:25 | 51.46770 | -0.46436 | 97 ft | 2 kts | 166° |
| 2026-05-07 14:25 | 51.46760 | -0.46442 | 95 ft | 1 kts | 202° |
| 2026-05-07 14:26 | 51.46753 | -0.46459 | 97 ft | 2 kts | 240° |
| 2026-05-07 14:26 | 51.46749 | -0.46513 | 96 ft | 6 kts | 266° |
| 2026-05-07 14:26 | 51.46747 | -0.46577 | 97 ft | 7 kts | 268° |
| 2026-05-07 14:26 | 51.46747 | -0.46664 | 97 ft | 9 kts | 270° |
| 2026-05-07 14:27 | 51.46747 | -0.46780 | 95 ft | 12 kts | 270° |
| 2026-05-07 14:27 | 51.46747 | -0.46942 | 96 ft | 17 kts | 269° |
| 2026-05-07 14:27 | 51.46746 | -0.47159 | 93 ft | 20 kts | 269° |
| 2026-05-07 14:27 | 51.46744 | -0.47369 | 92 ft | 19 kts | 269° |
| 2026-05-07 14:28 | 51.46744 | -0.47578 | 87 ft | 18 kts | 270° |
| 2026-05-07 14:28 | 51.46744 | -0.47759 | 92 ft | 14 kts | 270° |
| 2026-05-07 14:28 | 51.46745 | -0.47902 | 94 ft | 12 kts | 270° |
| 2026-05-07 14:28 | 51.46744 | -0.48027 | 90 ft | 10 kts | 268° |
| 2026-05-07 14:29 | 51.46741 | -0.48179 | 93 ft | 19 kts | 269° |
| 2026-05-07 14:29 | 51.46741 | -0.48368 | 95 ft | 16 kts | 270° |
| 2026-05-07 14:29 | 51.46740 | -0.48526 | 93 ft | 14 kts | 269° |
| 2026-05-07 14:29 | 51.46739 | -0.48676 | 93 ft | 9 kts | 268° |
| 2026-05-07 14:30 | 51.46730 | -0.48722 | 97 ft | 2 kts | 242° |
| 2026-05-07 14:30 | 51.46726 | -0.48730 | 96 ft | 1 kts | 236° |
| 2026-05-07 14:30 | 51.46724 | -0.48732 | 96 ft | 0 kts | 228° |
| 2026-05-07 14:30 | 51.46719 | -0.48737 | 95 ft | 3 kts | 214° |
| 2026-05-07 14:31 | 51.46679 | -0.48750 | 95 ft | 7 kts | 185° |
| 2026-05-07 14:31 | 51.46616 | -0.48763 | 95 ft | 12 kts | 188° |
| 2026-05-07 14:31 | 51.46532 | -0.48779 | 92 ft | 12 kts | 175° |
| 2026-05-07 14:31 | 51.46484 | -0.48724 | 96 ft | 6 kts | 118° |
| 2026-05-07 14:32 | 51.46480 | -0.48679 | 95 ft | 3 kts | 89° |
| 2026-05-07 14:32 | 51.46480 | -0.48666 | 94 ft | 0 kts | 90° |
| 2026-05-07 14:32 | 51.46480 | -0.48664 | 94 ft | 1 kts | 90° |
| 2026-05-07 14:32 | 51.46481 | -0.48641 | 92 ft | 3 kts | 89° |
| 2026-05-07 14:33 | 51.46480 | -0.48436 | 93 ft | 51 kts | 90° |
| 2026-05-07 14:33 | 51.46484 | -0.47452 | 92 ft | 125 kts | 89° |
| 2026-05-07 14:33 | 51.46495 | -0.45711 | 91 ft | 186 kts | 89° |
| 2026-05-07 14:33 | 51.46514 | -0.43382 | 170 ft | 223 kts | 89° |
| 2026-05-07 14:34 | 51.46531 | -0.40962 | 862 ft | 211 kts | 89° |
| 2026-05-07 14:34 | 51.46562 | -0.38665 | 1510 ft | 208 kts | 90° |
| 2026-05-07 14:34 | 51.46637 | -0.36203 | 1585 ft | 237 kts | 85° |
| 2026-05-07 14:34 | 51.46887 | -0.33621 | 2317 ft | 226 kts | 78° |
| 2026-05-07 14:35 | 51.47538 | -0.31321 | 2892 ft | 234 kts | 47° |
| 2026-05-07 14:35 | 51.48846 | -0.29931 | 3203 ft | 248 kts | 16° |
| 2026-05-07 14:35 | 51.50541 | -0.29491 | 3675 ft | 250 kts | 4° |
| 2026-05-07 14:35 | 51.52321 | -0.29267 | 4023 ft | 265 kts | 13° |
| 2026-05-07 14:36 | 51.54021 | -0.27921 | 4349 ft | 284 kts | 43° |
| 2026-05-07 14:36 | 51.55187 | -0.25321 | 4879 ft | 288 kts | 71° |
| 2026-05-07 14:36 | 51.55503 | -0.22299 | 5268 ft | 274 kts | 92° |
| 2026-05-07 14:36 | 51.55765 | -0.19213 | 5776 ft | 284 kts | 66° |
| 2026-05-07 14:37 | 51.56899 | -0.16610 | 6409 ft | 288 kts | 39° |
| 2026-05-07 14:37 | 51.60440 | -0.14201 | 7470 ft | 277 kts | 7° |
| 2026-05-07 14:37 | 51.62321 | -0.13807 | 8084 ft | 271 kts | 7° |
| 2026-05-07 14:38 | 51.64168 | -0.13465 | 9143 ft | 256 kts | 2° |
| 2026-05-07 14:38 | 51.65962 | -0.13569 | 9646 ft | 260 kts | 355° |
| 2026-05-07 14:38 | 51.67787 | -0.13702 | 10140 ft | 264 kts | 1° |
| 2026-05-07 14:38 | 51.69690 | -0.13367 | 10110 ft | 289 kts | 15° |
| 2026-05-07 14:39 | 51.71694 | -0.12367 | 10090 ft | 314 kts | 20° |
| 2026-05-07 14:39 | 51.73693 | -0.10681 | 10111 ft | 336 kts | 41° |
| 2026-05-07 14:39 | 51.75255 | -0.07754 | 10159 ft | 357 kts | 62° |
| 2026-05-07 14:39 | 51.76098 | -0.04351 | 10196 ft | 369 kts | 79° |
| 2026-05-07 14:40 | 51.76374 | -0.00444 | 10190 ft | 370 kts | 89° |
| 2026-05-07 14:40 | 51.76384 | 0.03714 | 10158 ft | 370 kts | 91° |
| 2026-05-07 14:40 | 51.76439 | 0.07864 | 10090 ft | 370 kts | 86° |
| 2026-05-07 14:40 | 51.76771 | 0.11986 | 10230 ft | 372 kts | 81° |
| 2026-05-07 14:41 | 51.77231 | 0.16067 | 10871 ft | 374 kts | 82° |
| 2026-05-07 14:41 | 51.77598 | 0.20247 | 11695 ft | 376 kts | 84° |
| 2026-05-07 14:41 | 51.77879 | 0.24465 | 12429 ft | 380 kts | 85° |
| 2026-05-07 14:41 | 51.78187 | 0.28725 | 13134 ft | 384 kts | 83° |
| 2026-05-07 14:42 | 51.78559 | 0.33032 | 13829 ft | 388 kts | 83° |
| 2026-05-07 14:42 | 51.78929 | 0.37362 | 14420 ft | 392 kts | 84° |
| 2026-05-07 14:42 | 51.79272 | 0.41753 | 14983 ft | 396 kts | 84° |
| 2026-05-07 14:42 | 51.79613 | 0.46197 | 15544 ft | 400 kts | 84° |
| 2026-05-07 14:43 | 51.79969 | 0.50668 | 16107 ft | 405 kts | 83° |
| 2026-05-07 14:43 | 51.80210 | 0.53660 | 16483 ft | 408 kts | 84° |
| 2026-05-07 14:43 | 51.80663 | 0.59415 | 17194 ft | 413 kts | 84° |
| 2026-05-07 14:43 | 51.81022 | 0.64042 | 17750 ft | 416 kts | 83° |
| 2026-05-07 14:44 | 51.81613 | 0.68634 | 18311 ft | 421 kts | 77° |
| 2026-05-07 14:44 | 51.82334 | 0.73244 | 18771 ft | 424 kts | 76° |
| 2026-05-07 14:44 | 51.83067 | 0.77887 | 19260 ft | 428 kts | 77° |
| 2026-05-07 14:44 | 51.83807 | 0.82567 | 19739 ft | 431 kts | 73° |
| 2026-05-07 14:45 | 51.84668 | 0.87158 | 20185 ft | 434 kts | 74° |
| 2026-05-07 14:45 | 51.85500 | 0.91869 | 20646 ft | 437 kts | 75° |
| 2026-05-07 14:45 | 51.86346 | 0.96600 | 21091 ft | 440 kts | 74° |
| 2026-05-07 14:45 | 51.87226 | 1.01365 | 21533 ft | 443 kts | 74° |
| 2026-05-07 14:46 | 51.88104 | 1.06145 | 21954 ft | 445 kts | 74° |
| 2026-05-07 14:46 | 51.88973 | 1.10984 | 22377 ft | 448 kts | 74° |
| 2026-05-07 14:46 | 51.89559 | 1.14260 | 22660 ft | 450 kts | 74° |
| 2026-05-07 14:46 | 51.90673 | 1.20454 | 23176 ft | 453 kts | 74° |
| 2026-05-07 14:47 | 51.91558 | 1.25358 | 23561 ft | 455 kts | 74° |
| 2026-05-07 14:47 | 51.92442 | 1.30302 | 23903 ft | 458 kts | 74° |
| 2026-05-07 14:47 | 51.93326 | 1.35270 | 24216 ft | 460 kts | 74° |
| 2026-05-07 14:47 | 51.94213 | 1.40255 | 24538 ft | 461 kts | 74° |
| 2026-05-07 14:48 | 51.95104 | 1.45272 | 24841 ft | 463 kts | 74° |
| 2026-05-07 14:48 | 51.95993 | 1.50291 | 25157 ft | 465 kts | 74° |
| 2026-05-07 14:48 | 51.96582 | 1.53628 | 25359 ft | 466 kts | 75° |
| 2026-05-07 14:48 | 51.97764 | 1.60347 | 25767 ft | 468 kts | 75° |
| 2026-05-07 14:49 | 51.98657 | 1.65433 | 26078 ft | 470 kts | 75° |
| 2026-05-07 14:49 | 51.99250 | 1.68888 | 26280 ft | 470 kts | 77° |
| 2026-05-07 14:49 | 52.00020 | 1.74064 | 26576 ft | 472 kts | 76° |
| 2026-05-07 14:49 | 52.00852 | 1.79215 | 26877 ft | 474 kts | 76° |
| 2026-05-07 14:50 | 52.01689 | 1.84408 | 27171 ft | 475 kts | 76° |
| 2026-05-07 14:50 | 52.02486 | 1.89630 | 27462 ft | 477 kts | 77° |
| 2026-05-07 14:50 | 52.03274 | 1.94859 | 27754 ft | 479 kts | 77° |
| 2026-05-07 14:50 | 52.04086 | 2.00117 | 28050 ft | 480 kts | 76° |
| 2026-05-07 14:51 | 52.04907 | 2.05387 | 28342 ft | 482 kts | 76° |
| 2026-05-07 14:51 | 52.05716 | 2.10678 | 28631 ft | 483 kts | 77° |
| 2026-05-07 14:51 | 52.06509 | 2.15930 | 28915 ft | 485 kts | 77° |
| 2026-05-07 14:51 | 52.07319 | 2.21266 | 29216 ft | 486 kts | 77° |
| 2026-05-07 14:52 | 52.08131 | 2.26607 | 29519 ft | 488 kts | 77° |
| 2026-05-07 14:52 | 52.08942 | 2.31972 | 29804 ft | 489 kts | 77° |
| 2026-05-07 14:52 | 52.09748 | 2.37350 | 30100 ft | 491 kts | 77° |